Hurdland, MO (63547)

5:52 AM CDT on July 29, 2014 (GMT -0500)
La Plata (KMOLAPLA2) Elev 928 ft | 40.03 °N, 92.48 °W | Change Station

Current weather conditions updated 3 seconds ago

Clear
Clear
55.6 °F
Feels Like 55.6 °F
N
0.7
Wind Variable Wind from SW
Gusts 0.7 mph

Today is forecast to be nearly the same temperature as yesterday.

Today
High -- | Low -- °F
--% Chance of Precip.
Yesterday
High -- | Low -- °F
Precip. -- in
6:04 AM 8:26 PM
Waxing Crescent, 6% visible
Pressure 30.16 in
Visibility 1.8 miles
Clouds Clear
Dew Point 55 °F
Humidity 99%
Rainfall 0.00 in
Snow Depth Not available.
UV 0 out of 12
Pollen 6.60 out of 12
Air Quality Not available.
Flu Activity Not available.
SPECI KIRK 291048Z AUTO 00000KT 1 3/4SM BR CLR 12/11 A3016 RMK AO2 T01170111

More Conditions Fewer Conditions

Pressure 30.16 in
Visibility 1.8 miles
Clouds Clear
Dew Point 55 °F
Humidity 99%
Rainfall 0.00 in
Snow Depth Not available.
UV 0 out of 12
Pollen 6.60 out of 12
Air Quality Not available.
Flu Activity Not available.
SPECI KIRK 291048Z AUTO 00000KT 1 3/4SM BR CLR 12/11 A3016 RMK AO2 T01170111

More Conditions Fewer Conditions

10-Day Weather Forecast

Almanac

Astronomy

Jul. 29, 2014 Rise Set
Actual Time 6:04 AM CDT 8:26 PM CDT
Civil Twilight 5:33 AM CDT 8:56 PM CDT
Nautical Twilight 4:55 AM CDT 9:34 PM CDT
Astronomical Twilight 4:13 AM CDT 10:16 PM CDT
Moon 8:41 AM CDT 9:38 PM CDT
Length of Visible Light 15h 23m
Length of Day
14h 21m
Tomorrow will be 1m 55s shorter.
Waxing Crescent, 6% of the Moon is Illuminated
Today
Waxing Crescent
Aug 3
First Quarter
Aug 10
Full
Aug 17
Last Quarter
Aug 25
New

Today's Extremes

State Highs State Lows

Community

WunderPhotos

Upload Photos

1,738,683 photos uploaded!

Nearby

Snow Depth

Station Depth Elevation
No new snow has been reported.

Earthquake Activity

City Distance Mag. Time & Date
No recent earthquake activity has been reported nearby.
Minimum magnitude displayed is 2.5.

Coastal Water Temperatures

Place Temperature
No Stations Reporting

Nearby Weather Stations

Station Location Temp. Dew Point Humidity Wind Precip. Elev Updated Type
La Plata, La Plata, MO 55.6 °F 55 °F 99% SW  at  0.7 mph 0.00 in / hr 928 ft 5:52 AM CDT Rapid Fire

Show More Stations Show Fewer Stations